Terminal Aerodrome Forecast
Issued by NWS Wilmington, OH

Current Version | Previous Version | Text Only | Print | Product List | Glossary Off
Versions: 1 2 3 4 5 6 7 8 9 10 11 12 13 14 15 16 17 18 19 20 21

000
FTUS41 KILN 031015 AAC
TAFDAY
TAF AMD
KDAY 031015Z 0310/0406 VRB12KT P6SM -TSRA BKN040CB
     FM031100 22012G18KT P6SM BKN050
     FM031800 27014G24KT P6SM VCTS BKN050CB
     FM032200 29012G18KT P6SM BKN050
     FM040100 32008KT P6SM SCT050=

USA.gov is the U.S. government's official web portal to all federal, state and local government web resources and services.